createdAt,value
2022-11-23T00:01:19.863Z,7.00
2022-11-23T00:04:13.765Z,7.16
2022-11-23T00:07:03.083Z,7.40
2022-11-23T00:09:54.475Z,7.52
2022-11-23T00:12:44.099Z,7.59
2022-11-23T00:15:33.739Z,7.72
2022-11-23T00:18:23.023Z,7.79
2022-11-23T00:21:16.519Z,7.74
2022-11-23T00:24:06.698Z,7.74
2022-11-23T00:26:56.064Z,7.66
2022-11-23T00:29:48.935Z,7.63
2022-11-23T00:32:38.299Z,7.61
2022-11-23T00:35:29.504Z,7.63
2022-11-23T00:38:20.213Z,7.62
2022-11-23T00:41:14.464Z,7.63
2022-11-23T00:44:04.482Z,7.65
2022-11-23T00:46:55.753Z,7.64
2022-11-23T00:49:44.999Z,7.61
2022-11-23T00:52:34.324Z,7.65
2022-11-23T00:55:27.299Z,7.75
2022-11-23T00:58:16.581Z,7.92
2022-11-23T01:01:09.927Z,8.01
2022-11-23T01:04:01.298Z,8.13
2022-11-23T01:06:52.121Z,8.24
2022-11-23T01:09:41.433Z,8.41
2022-11-23T01:12:32.384Z,8.51
2022-11-23T01:15:21.713Z,8.72
2022-11-23T01:18:11.096Z,8.73
2022-11-23T01:21:03.232Z,8.71
2022-11-23T01:23:54.178Z,8.85
2022-11-23T01:26:44.183Z,8.85
2022-11-23T01:29:35.139Z,8.84
2022-11-23T01:32:24.540Z,8.81
2022-11-23T01:35:13.999Z,8.85
2022-11-23T01:38:03.548Z,8.83
2022-11-23T01:40:52.840Z,8.83
2022-11-23T01:43:42.600Z,8.84
2022-11-23T01:46:33.537Z,9.00
2022-11-23T01:49:23.832Z,9.09
2022-11-23T01:52:17.266Z,9.25
2022-11-23T01:55:08.716Z,9.33
2022-11-23T01:57:58.503Z,9.25
2022-11-23T02:00:47.961Z,9.29
2022-11-23T02:03:42.653Z,9.28
2022-11-23T02:06:33.172Z,9.29
2022-11-23T02:09:25.670Z,9.22
2022-11-23T02:12:16.188Z,9.19
2022-11-23T02:15:07.265Z,9.12
2022-11-23T02:17:57.452Z,9.09
2022-11-23T02:20:48.492Z,9.06
2022-11-23T02:23:47.779Z,8.93
2022-11-23T02:26:39.220Z,8.88
2022-11-23T02:29:29.929Z,8.87
2022-11-23T02:32:26.207Z,8.84
2022-11-23T02:35:18.520Z,8.87
2022-11-23T02:38:08.088Z,8.95
2022-11-23T02:40:57.666Z,8.93
2022-11-23T02:43:52.201Z,9.04
2022-11-23T02:46:41.684Z,9.10
2022-11-23T02:49:31.315Z,9.08
2022-11-23T02:52:20.961Z,9.15
2022-11-23T02:55:11.695Z,9.27
2022-11-23T02:58:01.023Z,9.29
2022-11-23T03:00:52.902Z,9.48
2022-11-23T03:03:42.263Z,9.58
2022-11-23T03:06:31.468Z,9.61
2022-11-23T03:09:20.906Z,9.68
2022-11-23T03:12:10.317Z,9.76
2022-11-23T03:15:00.642Z,9.79
2022-11-23T03:17:53.938Z,9.90
2022-11-23T03:20:43.640Z,10.00
2022-11-23T03:23:33.344Z,10.02
2022-11-23T03:26:27.205Z,10.14
2022-11-23T03:29:26.835Z,10.29
2022-11-23T03:32:18.849Z,10.38
2022-11-23T03:35:13.127Z,10.45
2022-11-23T03:38:22.182Z,10.52
2022-11-23T03:41:11.671Z,10.60
2022-11-23T03:44:14.833Z,10.68
2022-11-23T03:47:05.529Z,10.75
2022-11-23T03:49:57.459Z,10.72
2022-11-23T03:52:50.480Z,10.75
2022-11-23T03:55:39.624Z,10.80
2022-11-23T03:58:28.945Z,10.92
2022-11-23T04:01:18.392Z,10.94
2022-11-23T04:04:11.243Z,10.98
2022-11-23T04:07:15.561Z,11.06
2022-11-23T04:10:13.060Z,11.07
2022-11-23T04:13:26.428Z,11.10
2022-11-23T04:16:16.306Z,11.18
2022-11-23T04:19:05.688Z,11.20
2022-11-23T04:21:55.296Z,11.13
2022-11-23T04:24:44.907Z,11.16
2022-11-23T04:27:35.865Z,11.05
2022-11-23T04:30:25.847Z,10.95
2022-11-23T04:33:18.095Z,10.82
2022-11-23T04:36:08.291Z,10.53
2022-11-23T04:38:57.867Z,10.44
2022-11-23T04:41:57.627Z,10.42
2022-11-23T04:44:48.586Z,10.30
2022-11-23T04:47:39.931Z,10.18
2022-11-23T04:50:34.270Z,10.13
2022-11-23T04:53:24.966Z,9.99
2022-11-23T04:56:14.518Z,9.94
2022-11-23T04:59:05.226Z,9.87
2022-11-23T05:01:56.736Z,9.91
2022-11-23T05:05:10.237Z,9.77
2022-11-23T05:08:00.087Z,9.74
2022-11-23T05:11:02.498Z,9.79
2022-11-23T05:13:52.065Z,9.68
2022-11-23T05:16:41.712Z,9.73
2022-11-23T05:19:33.130Z,9.65
2022-11-23T05:22:22.828Z,9.60
2022-11-23T05:25:12.325Z,9.65
2022-11-23T05:28:11.397Z,9.50
2022-11-23T05:31:11.647Z,9.51
2022-11-23T05:34:01.076Z,9.47
2022-11-23T05:37:02.001Z,9.46
2022-11-23T05:39:51.667Z,9.41
2022-11-23T05:42:42.357Z,9.42
2022-11-23T05:45:37.683Z,9.35
2022-11-23T05:48:27.500Z,9.32
2022-11-23T05:51:20.164Z,9.33
2022-11-23T05:54:12.832Z,9.35
2022-11-23T05:57:07.140Z,9.36
2022-11-23T06:00:01.884Z,9.16
2022-11-23T06:03:02.758Z,9.31
2022-11-23T06:05:54.178Z,9.35
2022-11-23T06:08:50.751Z,9.27
2022-11-23T06:11:44.634Z,9.23
2022-11-23T06:14:37.648Z,9.24
2022-11-23T06:17:27.864Z,9.23
2022-11-23T06:20:22.866Z,9.18
2022-11-23T06:23:21.607Z,9.24
2022-11-23T06:26:12.142Z,9.17
2022-11-23T06:29:04.522Z,9.12
2022-11-23T06:31:55.513Z,9.08
2022-11-23T06:34:44.985Z,9.11
2022-11-23T06:37:34.918Z,9.12
2022-11-23T06:40:24.303Z,9.11
2022-11-23T06:43:14.360Z,9.12
2022-11-23T06:46:08.607Z,9.10
2022-11-23T06:49:02.438Z,9.10
2022-11-23T06:51:51.817Z,9.07
2022-11-23T06:54:41.648Z,9.01
2022-11-23T06:57:31.395Z,9.04
2022-11-23T07:00:21.637Z,9.04
2022-11-23T07:03:23.852Z,9.03
2022-11-23T07:06:21.055Z,8.89
2022-11-23T07:09:13.845Z,9.00
2022-11-23T07:12:14.289Z,8.95
2022-11-23T07:15:05.539Z,8.95
2022-11-23T07:18:00.170Z,9.01
2022-11-23T07:20:51.363Z,8.85
2022-11-23T07:23:41.702Z,8.91
2022-11-23T07:26:31.357Z,8.93
2022-11-23T07:29:20.681Z,8.88
2022-11-23T07:32:10.133Z,8.89
2022-11-23T07:34:59.743Z,8.84
2022-11-23T07:37:52.265Z,8.77
2022-11-23T07:40:42.654Z,8.75
2022-11-23T07:43:43.097Z,8.72
2022-11-23T07:46:32.279Z,8.74
2022-11-23T07:49:21.785Z,8.73
2022-11-23T07:52:11.385Z,8.71
2022-11-23T07:55:01.995Z,8.74
2022-11-23T07:57:54.871Z,8.78
2022-11-23T08:00:44.402Z,8.72
2022-11-23T08:03:33.869Z,8.72
2022-11-23T08:06:23.361Z,8.72
2022-11-23T08:09:12.737Z,8.75
2022-11-23T08:12:03.403Z,8.62
2022-11-23T08:14:52.792Z,8.66
2022-11-23T08:17:42.056Z,8.75
2022-11-23T08:20:33.460Z,8.68
2022-11-23T08:23:23.266Z,8.73
2022-11-23T08:26:13.967Z,8.69
2022-11-23T08:29:05.042Z,8.74
2022-11-23T08:31:54.759Z,8.79
2022-11-23T08:34:45.285Z,8.81
2022-11-23T08:37:34.599Z,8.88
2022-11-23T08:40:25.771Z,8.77
2022-11-23T08:43:15.232Z,8.84
2022-11-23T08:46:10.897Z,8.79
2022-11-23T08:49:00.570Z,8.88
2022-11-23T08:51:50.459Z,8.90
2022-11-23T08:54:39.915Z,8.91
2022-11-23T08:57:29.874Z,8.90
2022-11-23T09:00:20.734Z,8.93
2022-11-23T09:03:11.516Z,8.93
2022-11-23T09:06:02.046Z,8.97
2022-11-23T09:08:51.386Z,8.99
2022-11-23T09:11:40.713Z,8.98
2022-11-23T09:14:30.763Z,8.94
2022-11-23T09:17:20.434Z,8.94
2022-11-23T09:20:13.096Z,9.05
2022-11-23T09:23:02.682Z,8.97
2022-11-23T09:25:52.014Z,8.94
2022-11-23T09:28:44.736Z,8.87
2022-11-23T09:31:34.564Z,9.01
2022-11-23T09:34:24.201Z,9.04
2022-11-23T09:37:15.655Z,9.08
2022-11-23T09:40:06.235Z,9.10
2022-11-23T09:43:13.789Z,9.06
2022-11-23T09:46:12.320Z,9.15
2022-11-23T09:49:15.291Z,9.14
2022-11-23T09:52:04.913Z,9.22
2022-11-23T09:54:59.666Z,9.25
2022-11-23T09:57:50.484Z,9.29
2022-11-23T10:00:45.318Z,9.24
2022-11-23T10:03:42.674Z,9.25
2022-11-23T10:06:41.530Z,9.38
2022-11-23T10:09:40.972Z,9.41
2022-11-23T10:12:46.000Z,9.48
2022-11-23T10:15:46.930Z,9.46
2022-11-23T10:18:48.179Z,9.48
2022-11-23T10:21:51.186Z,9.42
2022-11-23T10:24:50.442Z,9.47
2022-11-23T10:27:41.261Z,9.47
2022-11-23T10:30:30.595Z,9.56
2022-11-23T10:33:31.359Z,9.61
2022-11-23T10:36:20.912Z,9.69
2022-11-23T10:39:22.913Z,9.64
2022-11-23T10:42:26.994Z,9.78
2022-11-23T10:45:24.047Z,9.77
2022-11-23T10:48:13.646Z,9.93
2022-11-23T10:51:22.529Z,9.93
2022-11-23T10:54:23.680Z,9.99
2022-11-23T10:57:32.388Z,10.01
2022-11-23T11:00:30.518Z,9.99
2022-11-23T11:03:25.394Z,10.11
2022-11-23T11:06:25.735Z,10.14
2022-11-23T11:09:22.375Z,10.12
2022-11-23T11:12:18.662Z,10.22
2022-11-23T11:15:17.958Z,10.26
2022-11-23T11:18:21.009Z,10.29
2022-11-23T11:21:21.954Z,10.32
2022-11-23T11:24:21.499Z,10.39
2022-11-23T11:27:18.347Z,10.83
2022-11-23T11:30:22.036Z,11.56
2022-11-23T11:33:21.214Z,12.25
2022-11-23T11:36:14.348Z,12.75
2022-11-23T11:39:18.193Z,12.49
2022-11-23T11:42:18.091Z,12.48
2022-11-23T11:45:26.834Z,12.44
2022-11-23T11:48:23.908Z,12.47
2022-11-23T11:51:21.855Z,12.08
2022-11-23T11:54:22.715Z,12.33
2022-11-23T11:57:20.875Z,12.86
2022-11-23T12:00:19.245Z,13.19
2022-11-23T12:03:21.095Z,13.41
2022-11-23T12:06:23.698Z,13.56
2022-11-23T12:09:21.613Z,13.79
2022-11-23T12:12:17.814Z,13.73
2022-11-23T12:15:33.609Z,13.61
2022-11-23T12:18:52.944Z,13.70
2022-11-23T12:22:33.831Z,13.72
2022-11-23T12:25:33.558Z,13.66
2022-11-23T12:28:47.224Z,13.61
2022-11-23T12:31:45.165Z,13.73
2022-11-23T12:34:57.712Z,13.56
2022-11-23T12:38:04.125Z,13.39
2022-11-23T12:41:18.685Z,13.50
2022-11-23T12:44:45.458Z,13.39
2022-11-23T12:47:52.000Z,13.26
2022-11-23T12:50:51.022Z,13.21
2022-11-23T12:53:56.076Z,12.99
2022-11-23T12:57:02.356Z,12.96
2022-11-23T12:59:59.632Z,13.14
2022-11-23T13:03:28.604Z,13.24
2022-11-23T13:07:27.394Z,13.35
2022-11-23T13:10:30.632Z,13.40
2022-11-23T13:13:49.923Z,13.08
2022-11-23T13:17:06.206Z,12.81
2022-11-23T13:20:31.185Z,12.39
2022-11-23T13:23:22.787Z,12.20
2022-11-23T13:26:21.320Z,11.92
2022-11-23T13:30:01.367Z,11.68
2022-11-23T13:32:59.366Z,11.48
2022-11-23T13:36:05.194Z,11.78
2022-11-23T13:39:00.146Z,11.63
2022-11-23T13:42:02.702Z,11.75
2022-11-23T13:45:28.850Z,11.68
2022-11-23T13:48:54.868Z,11.60
2022-11-23T13:51:32.833Z,11.61
2022-11-23T13:54:24.949Z,11.69
2022-11-23T13:57:15.198Z,11.54
2022-11-23T14:00:51.324Z,11.75
2022-11-23T14:03:53.884Z,11.77
2022-11-23T14:06:51.399Z,11.78
2022-11-23T14:09:50.163Z,11.59
2022-11-23T14:12:50.329Z,11.60
2022-11-23T14:15:42.655Z,11.39
2022-11-23T14:18:52.815Z,11.38
2022-11-23T14:21:55.369Z,11.15
2022-11-23T14:25:25.233Z,11.03
2022-11-23T14:28:35.510Z,11.03
2022-11-23T14:31:36.398Z,11.10
2022-11-23T14:34:35.912Z,10.99
2022-11-23T14:37:37.683Z,11.03
2022-11-23T14:40:32.248Z,10.88
2022-11-23T14:43:22.427Z,10.88
2022-11-23T14:46:19.487Z,10.80
2022-11-23T14:49:15.718Z,10.81
2022-11-23T14:52:08.039Z,10.80
2022-11-23T14:55:00.289Z,10.81
2022-11-23T14:57:53.811Z,10.88
2022-11-23T15:00:45.880Z,10.86
2022-11-23T15:03:50.572Z,10.79
2022-11-23T15:06:46.682Z,10.82
2022-11-23T15:09:51.523Z,10.87
2022-11-23T15:12:46.790Z,10.81
2022-11-23T15:15:39.626Z,10.83
2022-11-23T15:18:32.330Z,10.82
2022-11-23T15:21:27.528Z,10.90
2022-11-23T15:24:25.670Z,10.92
2022-11-23T15:27:28.809Z,10.91
2022-11-23T15:30:21.484Z,10.84
2022-11-23T15:33:12.622Z,10.86
2022-11-23T15:36:03.143Z,10.85
2022-11-23T15:38:53.073Z,10.85
2022-11-23T15:41:42.436Z,10.85
2022-11-23T15:44:35.949Z,10.78
2022-11-23T15:47:28.646Z,10.80
2022-11-23T15:50:18.433Z,10.85
2022-11-23T15:53:10.017Z,10.86
2022-11-23T15:56:04.249Z,10.79
2022-11-23T15:58:55.355Z,10.81
2022-11-23T16:01:46.523Z,10.87
2022-11-23T16:04:40.785Z,10.81
2022-11-23T16:07:31.536Z,10.74
2022-11-23T16:10:23.467Z,10.51
2022-11-23T16:13:38.051Z,9.92
2022-11-23T16:16:27.573Z,9.27
2022-11-23T16:19:30.783Z,8.81
2022-11-23T16:22:30.395Z,8.61
2022-11-23T16:25:28.675Z,8.54
2022-11-23T16:28:24.618Z,8.43
2022-11-23T16:31:30.529Z,8.47
2022-11-23T16:34:20.860Z,8.48
2022-11-23T16:37:11.686Z,8.39
2022-11-23T16:40:00.965Z,8.40
2022-11-23T16:42:53.914Z,8.38
2022-11-23T16:45:46.157Z,8.35
2022-11-23T16:48:43.449Z,8.40
2022-11-23T16:51:32.895Z,8.44
2022-11-23T16:54:25.403Z,8.48
2022-11-23T16:57:31.509Z,8.38
2022-11-23T17:00:24.191Z,8.48
2022-11-23T17:03:15.778Z,8.41
2022-11-23T17:06:07.007Z,8.41
2022-11-23T17:09:03.172Z,8.30
2022-11-23T17:11:58.336Z,8.39
2022-11-23T17:14:50.274Z,8.43
2022-11-23T17:17:39.531Z,8.53
2022-11-23T17:20:29.188Z,8.63
2022-11-23T17:23:18.725Z,8.68
2022-11-23T17:26:11.591Z,8.79
2022-11-23T17:29:04.637Z,8.86
2022-11-23T17:31:53.998Z,8.83
2022-11-23T17:34:43.273Z,8.87
2022-11-23T17:37:32.704Z,8.80
2022-11-23T17:40:24.558Z,8.85
2022-11-23T17:43:16.412Z,8.83
2022-11-23T17:46:07.988Z,8.79
2022-11-23T17:49:01.932Z,8.69
2022-11-23T17:51:51.254Z,8.80
2022-11-23T17:54:40.523Z,8.85
2022-11-23T17:57:29.870Z,8.83
2022-11-23T18:00:22.956Z,8.79
2022-11-23T18:03:13.797Z,8.78
2022-11-23T18:06:03.122Z,8.75
2022-11-23T18:08:53.408Z,8.74
2022-11-23T18:11:42.702Z,8.64
2022-11-23T18:14:32.523Z,8.56
2022-11-23T18:17:22.525Z,8.51
2022-11-23T18:20:13.912Z,8.49
2022-11-23T18:23:03.444Z,8.47
2022-11-23T18:26:00.679Z,8.44
2022-11-23T18:28:51.044Z,8.49
2022-11-23T18:31:40.446Z,8.49
2022-11-23T18:34:29.871Z,8.67
2022-11-23T18:37:20.651Z,8.73
2022-11-23T18:40:11.382Z,8.80
2022-11-23T18:43:00.822Z,8.99
2022-11-23T18:45:50.422Z,9.05
2022-11-23T18:48:39.951Z,9.13
2022-11-23T18:51:29.243Z,9.10
2022-11-23T18:54:19.879Z,9.18
2022-11-23T18:57:10.035Z,9.17
2022-11-23T18:59:59.469Z,9.12
2022-11-23T19:02:54.185Z,9.07
2022-11-23T19:05:43.593Z,9.10
2022-11-23T19:08:33.902Z,9.08
2022-11-23T19:11:27.523Z,9.10
2022-11-23T19:14:16.944Z,9.03
2022-11-23T19:17:06.293Z,9.07
2022-11-23T19:19:55.740Z,9.13
2022-11-23T19:22:45.131Z,9.10
2022-11-23T19:25:34.447Z,9.14
2022-11-23T19:28:25.128Z,9.10
2022-11-23T19:31:16.856Z,9.00
2022-11-23T19:34:07.720Z,9.00
2022-11-23T19:36:56.945Z,9.08
2022-11-23T19:39:46.955Z,9.03
2022-11-23T19:42:36.936Z,8.94
2022-11-23T19:45:27.769Z,9.02
2022-11-23T19:48:17.098Z,9.02
2022-11-23T19:51:08.858Z,8.94
2022-11-23T19:54:00.114Z,8.93
2022-11-23T19:56:51.695Z,8.92
2022-11-23T19:59:41.094Z,8.99
2022-11-23T20:02:31.820Z,8.95
2022-11-23T20:05:21.546Z,8.92
2022-11-23T20:08:11.004Z,9.02
2022-11-23T20:11:06.561Z,8.89
2022-11-23T20:13:56.053Z,9.06
2022-11-23T20:16:45.457Z,9.09
2022-11-23T20:19:36.174Z,9.20
2022-11-23T20:22:25.598Z,9.17
2022-11-23T20:25:15.607Z,9.21
2022-11-23T20:28:06.073Z,9.15
2022-11-23T20:30:55.441Z,9.09
2022-11-23T20:33:45.560Z,9.21
2022-11-23T20:36:38.611Z,9.14
2022-11-23T20:39:27.818Z,9.21
2022-11-23T20:42:17.150Z,9.25
2022-11-23T20:45:07.833Z,9.24
2022-11-23T20:47:57.820Z,9.24
2022-11-23T20:50:47.139Z,9.27
2022-11-23T20:53:38.102Z,9.21
2022-11-23T20:56:29.177Z,9.14
2022-11-23T20:59:19.934Z,9.25
2022-11-23T21:02:10.909Z,9.28
2022-11-23T21:05:00.327Z,9.19
2022-11-23T21:07:50.157Z,9.06
2022-11-23T21:10:58.701Z,9.07
2022-11-23T21:14:05.082Z,9.04
2022-11-23T21:16:56.975Z,9.12
2022-11-23T21:19:46.365Z,9.16
2022-11-23T21:22:36.145Z,9.12
2022-11-23T21:25:25.535Z,9.19
2022-11-23T21:28:16.312Z,9.18
2022-11-23T21:31:09.543Z,9.25
2022-11-23T21:34:05.198Z,9.24
2022-11-23T21:36:56.333Z,9.25
2022-11-23T21:39:52.491Z,9.30
2022-11-23T21:42:44.776Z,9.34
2022-11-23T21:45:35.609Z,9.37
2022-11-23T21:48:24.957Z,9.36
2022-11-23T21:51:16.947Z,9.30
2022-11-23T21:54:10.029Z,9.24
2022-11-23T21:56:59.357Z,9.29
2022-11-23T21:59:48.783Z,9.24
2022-11-23T22:02:39.600Z,9.16
2022-11-23T22:05:28.965Z,9.07
2022-11-23T22:08:33.851Z,9.13
2022-11-23T22:11:25.596Z,9.12
2022-11-23T22:14:18.642Z,9.01
2022-11-23T22:17:07.974Z,8.96
2022-11-23T22:19:58.675Z,8.93
2022-11-23T22:22:48.023Z,8.96
2022-11-23T22:25:37.390Z,8.88
2022-11-23T22:28:26.788Z,8.88
2022-11-23T22:31:19.252Z,8.87
2022-11-23T22:34:12.691Z,8.83
2022-11-23T22:37:08.863Z,8.80
2022-11-23T22:40:00.038Z,8.56
2022-11-23T22:42:49.424Z,8.62
2022-11-23T22:45:38.799Z,8.71
2022-11-23T22:48:28.083Z,8.71
2022-11-23T22:51:20.201Z,8.76
2022-11-23T22:54:11.179Z,8.67
2022-11-23T22:57:00.488Z,8.76
2022-11-23T22:59:49.767Z,8.74
2022-11-23T23:02:39.316Z,8.80
2022-11-23T23:05:29.004Z,8.81
2022-11-23T23:08:18.246Z,8.84
2022-11-23T23:11:09.531Z,8.85
2022-11-23T23:13:59.948Z,8.83
2022-11-23T23:16:49.299Z,8.91
2022-11-23T23:19:38.666Z,8.87
2022-11-23T23:22:27.993Z,8.82
2022-11-23T23:25:17.385Z,8.90
2022-11-23T23:28:08.173Z,8.89
2022-11-23T23:31:01.786Z,8.87
2022-11-23T23:33:51.169Z,8.91
2022-11-23T23:36:40.480Z,8.90
2022-11-23T23:39:29.739Z,8.88
2022-11-23T23:42:19.069Z,8.89
2022-11-23T23:45:11.146Z,8.88
2022-11-23T23:48:00.631Z,8.88
2022-11-23T23:53:39.397Z,8.76
2022-11-23T23:56:30.514Z,8.82
2022-11-23T23:59:20.123Z,8.75
